createdAt,value
2022-11-27T00:01:27.570Z,99.28
2022-11-27T00:03:55.507Z,90.93
2022-11-27T00:06:24.665Z,100.90
2022-11-27T00:08:51.903Z,111.47
2022-11-27T00:11:21.263Z,96.03
2022-11-27T00:13:48.869Z,92.47
2022-11-27T00:16:16.207Z,104.25
2022-11-27T00:18:43.902Z,94.45
2022-11-27T00:21:24.833Z,100.75
2022-11-27T00:23:53.259Z,94.65
2022-11-27T00:26:20.413Z,101.78
2022-11-27T00:28:47.457Z,99.57
2022-11-27T00:31:19.330Z,103.57
2022-11-27T00:33:46.381Z,95.45
2022-11-27T00:36:14.602Z,114.25
2022-11-27T00:38:42.057Z,98.60
2022-11-27T00:41:15.674Z,103.32
2022-11-27T00:43:45.254Z,92.95
2022-11-27T00:46:33.369Z,99.63
2022-11-27T00:49:02.555Z,98.68
2022-11-27T00:51:30.140Z,99.45
2022-11-27T00:53:58.596Z,107.28
2022-11-27T00:56:31.035Z,103.35
2022-11-27T00:58:58.311Z,101.55
2022-11-27T01:01:28.044Z,122.38
2022-11-27T01:03:56.946Z,112.38
2022-11-27T01:06:24.634Z,108.03
2022-11-27T01:08:51.626Z,115.80
2022-11-27T01:11:22.269Z,117.13
2022-11-27T01:16:19.484Z,109.18
2022-11-27T01:18:48.291Z,111.38
2022-11-27T01:21:18.814Z,107.28
2022-11-27T01:23:46.719Z,111.15
2022-11-27T01:26:14.281Z,114.07
2022-11-27T01:28:41.865Z,114.13
2022-11-27T01:31:15.179Z,108.55
2022-11-27T01:33:42.236Z,113.05
2022-11-27T01:36:11.119Z,115.60
2022-11-27T01:38:38.356Z,112.57
2022-11-27T01:41:09.525Z,113.00
2022-11-27T01:43:40.583Z,109.50
2022-11-27T01:46:38.080Z,104.35
2022-11-27T01:49:10.932Z,116.43
2022-11-27T01:51:53.649Z,117.57
2022-11-27T01:54:22.632Z,116.07
2022-11-27T01:56:51.606Z,125.15
2022-11-27T01:59:19.003Z,111.00
2022-11-27T02:01:46.401Z,106.90
2022-11-27T02:04:13.432Z,115.82
2022-11-27T02:06:40.649Z,121.70
2022-11-27T02:09:07.741Z,107.82
2022-11-27T02:11:46.594Z,112.25
2022-11-27T02:14:38.215Z,117.45
2022-11-27T02:17:17.185Z,109.20
2022-11-27T02:20:08.650Z,109.80
2022-11-27T02:22:41.674Z,112.10
2022-11-27T02:25:30.532Z,108.53
2022-11-27T02:28:08.576Z,131.50
2022-11-27T02:30:41.865Z,115.60
2022-11-27T02:33:11.602Z,112.72
2022-11-27T02:36:02.076Z,110.80
2022-11-27T02:38:34.328Z,127.32
2022-11-27T02:41:07.392Z,128.40
2022-11-27T02:43:37.511Z,127.72
2022-11-27T02:46:05.825Z,129.52
2022-11-27T02:48:54.241Z,130.32
2022-11-27T02:51:31.481Z,124.50
2022-11-27T02:54:02.091Z,122.85
2022-11-27T02:56:30.179Z,127.43
2022-11-27T02:59:01.641Z,105.40
2022-11-27T03:01:33.660Z,95.60
2022-11-27T03:04:03.115Z,113.13
2022-11-27T03:06:52.017Z,109.22
2022-11-27T03:09:36.091Z,92.97
2022-11-27T03:12:06.522Z,98.07
2022-11-27T03:14:34.922Z,114.35
2022-11-27T03:17:31.467Z,111.82
2022-11-27T03:20:05.314Z,106.13
2022-11-27T03:22:32.288Z,124.47
2022-11-27T03:24:59.479Z,109.97
2022-11-27T03:27:46.778Z,117.88
2022-11-27T03:30:14.537Z,108.20
2022-11-27T03:32:41.601Z,122.97
2022-11-27T03:35:10.541Z,101.95
2022-11-27T03:37:38.250Z,112.00
2022-11-27T03:40:06.735Z,105.53
2022-11-27T03:42:58.470Z,119.45
2022-11-27T03:45:33.083Z,113.03
2022-11-27T03:48:35.533Z,97.82
2022-11-27T03:51:13.851Z,118.32
2022-11-27T03:53:50.049Z,115.18
2022-11-27T03:56:43.906Z,108.53
2022-11-27T03:59:16.326Z,105.78
2022-11-27T04:01:43.324Z,112.30
2022-11-27T04:04:10.304Z,101.20
2022-11-27T04:06:37.447Z,101.60
2022-11-27T04:09:04.843Z,86.18
2022-11-27T04:11:31.790Z,96.65
2022-11-27T04:13:58.977Z,86.20
2022-11-27T04:16:25.975Z,104.75
2022-11-27T04:18:53.097Z,98.45
2022-11-27T04:21:20.056Z,91.80
2022-11-27T04:23:47.041Z,93.28
2022-11-27T04:26:13.996Z,96.03
2022-11-27T04:28:40.970Z,108.03
2022-11-27T04:31:07.966Z,98.22
2022-11-27T04:33:34.956Z,102.45
2022-11-27T04:36:01.985Z,100.57
2022-11-27T04:38:28.968Z,106.18
2022-11-27T04:40:55.933Z,100.88
2022-11-27T04:43:22.910Z,102.28
2022-11-27T04:45:51.362Z,89.53
2022-11-27T04:48:18.372Z,100.38
2022-11-27T04:50:48.399Z,93.43
2022-11-27T04:53:15.559Z,94.95
2022-11-27T04:55:42.515Z,91.97
2022-11-27T04:58:09.481Z,94.78
2022-11-27T05:00:36.711Z,95.13
2022-11-27T05:03:03.766Z,85.05
2022-11-27T05:05:30.983Z,106.88
2022-11-27T05:07:57.939Z,98.25
2022-11-27T05:10:24.929Z,94.25
2022-11-27T05:12:51.901Z,85.70
2022-11-27T05:15:19.187Z,99.63
2022-11-27T05:17:46.158Z,99.93
2022-11-27T05:20:13.243Z,88.50
2022-11-27T05:22:40.443Z,90.80
2022-11-27T05:25:07.690Z,92.32
2022-11-27T05:27:34.651Z,96.32
2022-11-27T05:30:01.654Z,93.75
2022-11-27T05:32:28.623Z,90.57
2022-11-27T05:34:55.613Z,99.22
2022-11-27T05:37:22.575Z,98.97
2022-11-27T05:39:49.537Z,95.53
2022-11-27T05:42:16.575Z,89.95
2022-11-27T05:44:43.613Z,92.72
2022-11-27T05:47:11.028Z,95.95
2022-11-27T05:49:38.844Z,95.20
2022-11-27T05:52:05.805Z,101.03
2022-11-27T05:54:32.777Z,94.50
2022-11-27T05:56:59.805Z,84.82
2022-11-27T05:59:26.742Z,87.57
2022-11-27T06:01:53.774Z,87.28
2022-11-27T06:04:20.823Z,92.30
2022-11-27T06:06:47.742Z,87.20
2022-11-27T06:09:14.710Z,82.63
2022-11-27T06:11:42.350Z,101.75
2022-11-27T06:14:10.151Z,98.35
2022-11-27T06:16:37.668Z,94.25
2022-11-27T06:19:04.890Z,97.50
2022-11-27T06:21:31.861Z,96.57
2022-11-27T06:23:59.438Z,85.57
2022-11-27T06:26:29.386Z,95.80
2022-11-27T06:28:57.896Z,89.77
2022-11-27T06:31:28.318Z,93.45
2022-11-27T06:33:56.260Z,94.18
2022-11-27T06:36:25.533Z,89.60
2022-11-27T06:38:52.986Z,93.13
2022-11-27T06:41:21.747Z,106.13
2022-11-27T06:43:48.768Z,97.57
2022-11-27T06:46:18.236Z,101.30
2022-11-27T06:48:46.728Z,107.88
2022-11-27T06:51:16.544Z,106.32
2022-11-27T06:53:44.188Z,110.28
2022-11-27T06:56:13.725Z,136.52
2022-11-27T06:58:41.155Z,115.40
2022-11-27T07:01:17.015Z,117.03
2022-11-27T07:03:45.199Z,128.13
2022-11-27T07:06:15.522Z,122.90
2022-11-27T07:08:42.877Z,116.00
2022-11-27T07:11:21.241Z,142.73
2022-11-27T07:13:49.015Z,133.98
2022-11-27T07:16:16.780Z,142.05
2022-11-27T07:18:47.046Z,126.20
2022-11-27T07:21:14.697Z,157.73
2022-11-27T07:23:42.055Z,154.38
2022-11-27T07:26:21.431Z,127.75
2022-11-27T07:28:48.902Z,152.88
2022-11-27T07:31:19.451Z,151.10
2022-11-27T07:33:46.841Z,122.72
2022-11-27T07:36:16.813Z,133.80
2022-11-27T07:38:44.632Z,151.50
2022-11-27T07:41:12.950Z,145.10
2022-11-27T07:43:40.906Z,138.02
2022-11-27T07:46:10.869Z,154.80
2022-11-27T07:48:38.753Z,158.65
2022-11-27T07:51:10.455Z,144.48
2022-11-27T07:53:38.672Z,130.75
2022-11-27T07:56:06.856Z,165.68
2022-11-27T07:58:33.981Z,156.88
2022-11-27T08:01:01.282Z,148.82
2022-11-27T08:03:28.318Z,151.70
2022-11-27T08:05:55.415Z,135.15
2022-11-27T08:08:22.317Z,137.38
2022-11-27T08:10:49.362Z,122.13
2022-11-27T08:13:16.329Z,118.43
2022-11-27T08:15:43.340Z,118.80
2022-11-27T08:18:10.877Z,116.55
2022-11-27T08:20:37.992Z,112.40
2022-11-27T08:23:05.114Z,120.45
2022-11-27T08:25:32.803Z,128.02
2022-11-27T08:27:59.794Z,143.48
2022-11-27T08:30:26.875Z,138.25
2022-11-27T08:32:53.881Z,121.90
2022-11-27T08:35:20.852Z,136.60
2022-11-27T08:37:48.316Z,147.60
2022-11-27T08:40:15.454Z,132.13
2022-11-27T08:42:42.534Z,133.77
2022-11-27T08:45:10.137Z,122.32
2022-11-27T08:47:37.241Z,148.02
2022-11-27T08:50:04.514Z,154.60
2022-11-27T08:52:32.708Z,125.82
2022-11-27T08:54:59.720Z,122.75
2022-11-27T08:57:26.752Z,132.55
2022-11-27T08:59:53.778Z,140.32
2022-11-27T09:02:20.636Z,127.40
2022-11-27T09:04:47.491Z,154.75
2022-11-27T09:07:16.265Z,168.95
2022-11-27T09:09:43.507Z,136.27
2022-11-27T09:12:10.645Z,137.77
2022-11-27T09:14:38.500Z,144.88
2022-11-27T09:17:05.691Z,145.75
2022-11-27T09:19:32.879Z,148.90
2022-11-27T09:22:00.198Z,138.52
2022-11-27T09:24:27.310Z,141.57
2022-11-27T09:26:54.367Z,142.32
2022-11-27T09:29:21.589Z,142.80
2022-11-27T09:31:48.696Z,150.00
2022-11-27T09:34:15.715Z,151.68
2022-11-27T09:36:42.741Z,151.52
2022-11-27T09:39:09.973Z,149.38
2022-11-27T09:41:53.873Z,138.05
2022-11-27T09:44:40.033Z,141.05
2022-11-27T09:47:28.860Z,144.13
2022-11-27T09:50:02.021Z,141.57
2022-11-27T09:52:41.604Z,128.85
2022-11-27T09:55:16.178Z,137.82
2022-11-27T09:57:44.340Z,130.35
2022-11-27T10:00:19.954Z,130.52
2022-11-27T10:02:48.420Z,138.38
2022-11-27T10:05:26.461Z,126.93
2022-11-27T10:08:17.921Z,126.10
2022-11-27T10:11:24.971Z,121.78
2022-11-27T10:14:19.536Z,126.97
2022-11-27T10:16:57.879Z,121.20
2022-11-27T10:19:52.950Z,131.35
2022-11-27T10:22:30.362Z,128.40
2022-11-27T10:25:05.955Z,116.20
2022-11-27T10:28:05.151Z,116.78
2022-11-27T10:30:33.809Z,114.35
2022-11-27T10:33:01.496Z,113.25
2022-11-27T10:35:30.479Z,122.88
2022-11-27T10:38:18.124Z,113.22
2022-11-27T10:41:09.808Z,115.72
2022-11-27T10:43:39.198Z,112.50
2022-11-27T10:46:16.747Z,113.03
2022-11-27T10:48:43.845Z,110.18
2022-11-27T10:51:18.021Z,108.47
2022-11-27T10:53:47.507Z,106.93
2022-11-27T10:56:15.983Z,103.95
2022-11-27T10:58:56.890Z,113.43
2022-11-27T11:03:52.048Z,111.25
2022-11-27T11:06:22.387Z,118.47
2022-11-27T11:09:02.434Z,118.85
2022-11-27T11:11:29.416Z,124.28
2022-11-27T11:13:56.430Z,110.93
2022-11-27T11:16:29.420Z,127.82
2022-11-27T11:19:01.816Z,99.97
2022-11-27T11:21:32.604Z,109.18
2022-11-27T11:26:38.184Z,107.35
2022-11-27T11:29:19.747Z,107.00
2022-11-27T11:31:46.860Z,115.13
2022-11-27T11:34:21.378Z,105.22
2022-11-27T11:37:02.522Z,112.40
2022-11-27T11:39:39.261Z,110.82
2022-11-27T11:42:43.028Z,114.70
2022-11-27T11:45:13.625Z,100.65
2022-11-27T11:47:56.655Z,110.00
2022-11-27T11:50:30.668Z,114.97
2022-11-27T11:53:19.052Z,110.47
2022-11-27T11:56:18.890Z,104.28
2022-11-27T11:59:03.299Z,104.28
2022-11-27T12:02:04.573Z,139.65
2022-11-27T12:04:52.661Z,121.45
2022-11-27T12:07:38.517Z,118.20
2022-11-27T12:10:13.679Z,110.68
2022-11-27T12:12:54.875Z,104.35
2022-11-27T12:15:55.940Z,108.72
2022-11-27T12:18:38.440Z,113.60
2022-11-27T12:21:17.407Z,112.35
2022-11-27T12:24:02.699Z,105.18
2022-11-27T12:26:37.550Z,106.22
2022-11-27T12:29:29.546Z,99.00
2022-11-27T12:32:30.546Z,102.55
2022-11-27T12:37:30.349Z,130.18
2022-11-27T12:40:18.864Z,119.25
2022-11-27T12:43:05.693Z,110.10
2022-11-27T12:46:05.062Z,115.40
2022-11-27T12:48:39.784Z,102.72
2022-11-27T12:51:13.958Z,114.50
2022-11-27T12:53:46.951Z,121.05
2022-11-27T12:56:22.830Z,115.13
2022-11-27T12:58:55.515Z,112.47
2022-11-27T13:01:28.122Z,110.03
2022-11-27T13:04:13.882Z,114.55
2022-11-27T13:06:49.704Z,138.15
2022-11-27T13:09:21.362Z,138.77
2022-11-27T13:11:48.792Z,137.82
2022-11-27T13:14:27.221Z,128.55
2022-11-27T13:16:57.550Z,143.98
2022-11-27T13:19:36.155Z,137.10
2022-11-27T13:22:12.306Z,127.53
2022-11-27T13:24:39.720Z,131.77
2022-11-27T13:27:18.980Z,130.18
2022-11-27T13:30:10.375Z,123.30
2022-11-27T13:32:49.389Z,124.03
2022-11-27T13:35:54.238Z,122.70
2022-11-27T13:38:24.962Z,127.35
2022-11-27T13:43:34.777Z,148.02
2022-11-27T13:46:07.586Z,142.43
2022-11-27T13:48:42.377Z,161.52
2022-11-27T13:51:10.917Z,141.35
2022-11-27T13:53:40.740Z,142.25
2022-11-27T13:56:08.937Z,153.75
2022-11-27T13:58:41.276Z,149.25
2022-11-27T14:01:23.680Z,155.45
2022-11-27T14:03:51.073Z,140.32
2022-11-27T14:06:21.032Z,148.52
2022-11-27T14:08:55.161Z,148.70
2022-11-27T14:11:40.504Z,197.82
2022-11-27T14:14:22.897Z,195.10
2022-11-27T14:17:00.010Z,214.50
2022-11-27T14:19:33.624Z,224.68
2022-11-27T14:22:01.657Z,188.90
2022-11-27T14:24:36.858Z,199.23
2022-11-27T14:27:15.129Z,196.93
2022-11-27T14:29:42.384Z,214.40
2022-11-27T14:32:12.484Z,206.85
2022-11-27T14:34:39.834Z,197.82
2022-11-27T14:37:06.922Z,199.90
2022-11-27T14:39:35.917Z,182.50
2022-11-27T14:42:08.492Z,159.27
2022-11-27T14:44:35.479Z,159.00
2022-11-27T14:47:05.703Z,157.27
2022-11-27T14:49:33.975Z,150.98
2022-11-27T14:52:05.214Z,158.23
2022-11-27T14:54:35.288Z,171.77
2022-11-27T14:57:02.908Z,159.10
2022-11-27T14:59:30.044Z,172.68
2022-11-27T15:02:01.587Z,183.32
2022-11-27T15:04:36.140Z,188.10
2022-11-27T15:07:07.603Z,177.38
2022-11-27T15:09:35.476Z,191.43
2022-11-27T15:12:17.031Z,191.63
2022-11-27T15:15:09.779Z,177.32
2022-11-27T15:17:39.501Z,200.93
2022-11-27T15:20:19.103Z,181.85
2022-11-27T15:22:54.554Z,231.82
2022-11-27T15:25:39.591Z,180.40
2022-11-27T15:28:26.785Z,184.50
2022-11-27T15:30:54.085Z,185.82
2022-11-27T15:33:54.869Z,171.70
2022-11-27T15:36:22.255Z,168.48
2022-11-27T15:38:51.457Z,166.02
2022-11-27T15:41:20.246Z,164.13
2022-11-27T15:43:47.229Z,180.45
2022-11-27T15:46:14.823Z,182.27
2022-11-27T15:48:42.467Z,175.05
2022-11-27T15:51:09.461Z,182.50
2022-11-27T15:53:36.419Z,163.15
2022-11-27T15:56:03.529Z,166.60
2022-11-27T15:58:30.532Z,178.05
2022-11-27T16:00:58.397Z,203.27
2022-11-27T16:03:25.397Z,212.25
2022-11-27T16:05:52.721Z,217.65
2022-11-27T16:08:19.676Z,224.57
2022-11-27T16:10:46.655Z,231.73
2022-11-27T16:13:13.580Z,243.00
2022-11-27T16:15:40.524Z,279.70
2022-11-27T16:18:07.612Z,245.07
2022-11-27T16:20:34.570Z,250.60
2022-11-27T16:23:01.491Z,237.88
2022-11-27T16:25:28.511Z,235.93
2022-11-27T16:28:00.973Z,199.70
2022-11-27T16:30:29.605Z,223.82
2022-11-27T16:32:56.619Z,222.95
2022-11-27T16:35:25.420Z,222.02
2022-11-27T16:37:52.360Z,203.60
2022-11-27T16:40:19.355Z,201.98
2022-11-27T16:42:47.173Z,198.68
2022-11-27T16:45:14.128Z,224.65
2022-11-27T16:47:41.212Z,211.50
2022-11-27T16:50:10.901Z,236.90
2022-11-27T16:52:38.072Z,195.95
2022-11-27T16:55:05.454Z,206.40
2022-11-27T16:57:32.402Z,200.77
2022-11-27T16:59:59.319Z,215.55
2022-11-27T17:02:29.156Z,197.15
2022-11-27T17:04:56.379Z,233.07
2022-11-27T17:07:23.430Z,196.95
2022-11-27T17:09:50.398Z,186.70
2022-11-27T17:12:17.429Z,220.70
2022-11-27T17:14:44.559Z,252.45
2022-11-27T17:17:11.470Z,270.58
2022-11-27T17:19:38.553Z,258.77
2022-11-27T17:22:05.771Z,250.25
2022-11-27T17:24:35.860Z,253.10
2022-11-27T17:27:03.569Z,250.73
2022-11-27T17:29:33.712Z,255.27
2022-11-27T17:32:01.375Z,261.20
2022-11-27T17:34:28.257Z,228.02
2022-11-27T17:36:57.830Z,256.77
2022-11-27T17:39:24.893Z,244.00
2022-11-27T17:41:52.015Z,201.48
2022-11-27T17:44:19.532Z,218.63
2022-11-27T17:46:50.245Z,210.50
2022-11-27T17:51:44.313Z,213.48
2022-11-27T17:54:12.057Z,192.90
2022-11-27T17:56:39.496Z,211.13
2022-11-27T17:59:06.417Z,220.38
2022-11-27T18:01:35.366Z,223.93
2022-11-27T18:04:04.495Z,215.48
2022-11-27T18:06:32.210Z,225.57
2022-11-27T18:08:59.502Z,165.02
2022-11-27T18:11:29.713Z,163.27
2022-11-27T18:13:56.695Z,208.48
2022-11-27T18:16:29.636Z,214.50
2022-11-27T18:18:57.855Z,221.80
2022-11-27T18:21:30.906Z,209.65
2022-11-27T18:29:34.236Z,236.60
2022-11-27T18:32:01.334Z,174.65
2022-11-27T18:34:28.561Z,203.27
2022-11-27T18:36:57.557Z,222.27
2022-11-27T18:39:32.174Z,205.75
2022-11-27T18:41:59.690Z,206.85
2022-11-27T18:44:27.443Z,175.40
2022-11-27T18:46:55.191Z,198.10
2022-11-27T18:49:23.619Z,182.43
2022-11-27T18:51:54.420Z,193.35
2022-11-27T18:56:48.636Z,165.32
2022-11-27T18:59:15.750Z,179.60
2022-11-27T19:01:43.052Z,179.40
2022-11-27T19:04:11.480Z,185.52
2022-11-27T19:06:39.631Z,199.35
2022-11-27T19:09:07.239Z,193.35
2022-11-27T19:11:35.372Z,172.68
2022-11-27T19:14:02.886Z,202.15
2022-11-27T19:16:35.295Z,180.90
2022-11-27T19:19:04.377Z,199.50
2022-11-27T19:21:33.143Z,214.27
2022-11-27T19:24:01.415Z,265.45
2022-11-27T19:26:31.616Z,209.05
2022-11-27T19:29:00.614Z,197.93
2022-11-27T19:31:27.882Z,193.23
2022-11-27T19:33:56.721Z,205.88
2022-11-27T19:36:23.845Z,195.35
2022-11-27T19:38:55.990Z,199.23
2022-11-27T19:41:23.609Z,218.88
2022-11-27T19:43:50.618Z,198.60
2022-11-27T19:46:26.281Z,205.18
2022-11-27T19:48:58.095Z,189.43
2022-11-27T19:51:26.232Z,185.98
2022-11-27T19:53:53.430Z,198.23
2022-11-27T19:56:20.523Z,223.55
2022-11-27T19:58:47.516Z,195.63
2022-11-27T20:01:17.224Z,194.65
2022-11-27T20:03:44.887Z,225.73
2022-11-27T20:06:18.089Z,202.82
2022-11-27T20:08:46.215Z,220.23
2022-11-27T20:11:17.327Z,227.30
2022-11-27T20:13:44.397Z,236.35
2022-11-27T20:16:14.132Z,165.55
2022-11-27T20:18:41.809Z,207.95
2022-11-27T20:21:11.795Z,173.05
2022-11-27T20:23:39.730Z,185.48
2022-11-27T20:26:08.172Z,197.25
2022-11-27T20:28:35.324Z,185.38
2022-11-27T20:31:04.699Z,183.45
2022-11-27T20:33:32.863Z,137.85
2022-11-27T20:36:00.773Z,171.73
2022-11-27T20:38:28.342Z,175.05
2022-11-27T20:40:55.745Z,172.13
2022-11-27T20:43:23.338Z,189.40
2022-11-27T20:45:52.871Z,186.15
2022-11-27T20:48:19.968Z,206.90
2022-11-27T20:50:51.355Z,186.70
2022-11-27T20:53:18.893Z,205.95
2022-11-27T20:55:46.364Z,166.27
2022-11-27T20:58:13.374Z,171.70
2022-11-27T21:00:40.961Z,255.90
2022-11-27T21:03:07.969Z,207.95
2022-11-27T21:05:35.089Z,242.80
2022-11-27T21:08:02.686Z,212.88
2022-11-27T21:10:30.418Z,172.93
2022-11-27T21:12:57.686Z,192.23
2022-11-27T21:15:24.654Z,163.82
2022-11-27T21:17:52.103Z,158.93
2022-11-27T21:20:21.030Z,167.45
2022-11-27T21:22:48.046Z,170.70
2022-11-27T21:25:15.370Z,163.90
2022-11-27T21:27:42.847Z,202.73
2022-11-27T21:30:10.481Z,177.13
2022-11-27T21:32:37.536Z,172.93
2022-11-27T21:35:04.906Z,188.18
2022-11-27T21:37:32.099Z,177.15
2022-11-27T21:39:59.068Z,169.20
2022-11-27T21:42:26.246Z,147.38
2022-11-27T21:44:53.402Z,168.00
2022-11-27T21:47:20.796Z,167.00
2022-11-27T21:49:50.199Z,177.70
2022-11-27T21:52:17.739Z,170.50
2022-11-27T21:54:45.034Z,196.43
2022-11-27T21:57:12.057Z,176.43
2022-11-27T21:59:39.232Z,177.82
2022-11-27T22:02:06.557Z,219.35
2022-11-27T22:04:33.715Z,209.25
2022-11-27T22:07:00.676Z,194.35
2022-11-27T22:09:30.559Z,213.68
2022-11-27T22:11:57.905Z,227.60
2022-11-27T22:14:24.970Z,202.77
2022-11-27T22:16:52.001Z,195.88
2022-11-27T22:19:19.820Z,216.13
2022-11-27T22:21:46.876Z,207.85
2022-11-27T22:24:19.040Z,241.52
2022-11-27T22:26:48.748Z,177.63
2022-11-27T22:29:15.895Z,247.88
2022-11-27T22:31:42.913Z,255.35
2022-11-27T22:34:09.983Z,203.82
2022-11-27T22:36:37.195Z,202.25
2022-11-27T22:39:06.579Z,195.98
2022-11-27T22:41:36.763Z,189.98
2022-11-27T22:44:14.023Z,249.00
2022-11-27T22:46:43.819Z,223.05
2022-11-27T22:49:12.952Z,250.20
2022-11-27T22:51:40.785Z,217.07
2022-11-27T22:54:10.227Z,185.70
2022-11-27T22:56:37.517Z,222.10
2022-11-27T23:01:53.339Z,302.02
2022-11-27T23:04:20.352Z,174.75
2022-11-27T23:06:48.855Z,240.73
2022-11-27T23:09:16.803Z,238.55
2022-11-27T23:11:44.543Z,218.80
2022-11-27T23:14:11.551Z,209.50
2022-11-27T23:16:38.726Z,224.40
2022-11-27T23:19:06.093Z,184.70
2022-11-27T23:21:36.299Z,222.10
2022-11-27T23:24:04.452Z,219.90
2022-11-27T23:26:32.351Z,237.73
2022-11-27T23:28:59.482Z,217.85
2022-11-27T23:31:31.208Z,217.50
2022-11-27T23:33:59.686Z,200.90
2022-11-27T23:36:27.537Z,208.10
2022-11-27T23:38:54.552Z,231.35
2022-11-27T23:41:24.048Z,225.82
2022-11-27T23:43:52.533Z,179.75
2022-11-27T23:46:22.950Z,190.50
2022-11-27T23:48:50.192Z,199.25
2022-11-27T23:51:20.092Z,186.70
2022-11-27T23:53:47.747Z,210.07
2022-11-27T23:56:17.933Z,199.88
2022-11-27T23:58:47.403Z,157.40
